createdAt,value
2023-02-20T00:02:09.775Z,99414.53
2023-02-20T00:04:36.327Z,99407.78
2023-02-20T00:07:02.899Z,99419.75
2023-02-20T00:09:30.250Z,99413.84
2023-02-20T00:11:57.868Z,99414.88
2023-02-20T00:14:24.495Z,99410.00
2023-02-20T00:16:51.130Z,99394.19
2023-02-20T00:19:17.739Z,99403.94
2023-02-20T00:21:51.907Z,99402.72
2023-02-20T00:24:19.459Z,99404.72
2023-02-20T00:26:48.075Z,99403.88
2023-02-20T00:29:19.297Z,99401.88
2023-02-20T00:31:56.291Z,99400.88
2023-02-20T00:34:25.001Z,99403.47
2023-02-20T00:36:51.626Z,99408.94
2023-02-20T00:39:18.482Z,99401.28
2023-02-20T00:41:45.149Z,99396.91
2023-02-20T00:44:12.225Z,99401.06
2023-02-20T00:46:38.857Z,99395.84
2023-02-20T00:49:05.625Z,99390.75
2023-02-20T00:51:33.552Z,99404.69
2023-02-20T00:54:00.455Z,99397.19
2023-02-20T00:56:27.351Z,99360.03
2023-02-20T00:58:54.199Z,99386.66
2023-02-20T01:01:20.860Z,99387.38
2023-02-20T01:03:47.495Z,99394.13
2023-02-20T01:06:14.270Z,99410.19
2023-02-20T01:08:40.958Z,99389.56
2023-02-20T01:11:08.387Z,99394.72
2023-02-20T01:13:35.421Z,99394.63
2023-02-20T01:16:02.121Z,99399.81
2023-02-20T01:18:28.765Z,99387.78
2023-02-20T01:20:55.505Z,99383.50
2023-02-20T01:23:22.165Z,99390.88
2023-02-20T01:25:49.141Z,99371.75
2023-02-20T01:28:15.827Z,99394.63
2023-02-20T01:30:42.514Z,99383.31
2023-02-20T01:33:09.159Z,99381.34
2023-02-20T01:35:36.177Z,99393.25
2023-02-20T01:38:06.630Z,99365.53
2023-02-20T01:40:36.405Z,99383.13
2023-02-20T01:43:04.423Z,99378.97
2023-02-20T01:45:38.210Z,99372.06
2023-02-20T01:48:05.312Z,99375.53
2023-02-20T01:50:42.423Z,99372.31
2023-02-20T01:53:12.784Z,99367.31
2023-02-20T01:55:54.307Z,99363.13
2023-02-20T01:58:37.056Z,99363.84
2023-02-20T02:01:05.484Z,99363.03
2023-02-20T02:03:37.457Z,99367.38
2023-02-20T02:06:07.536Z,99368.03
2023-02-20T02:08:37.870Z,99359.69
2023-02-20T02:11:13.362Z,99355.50
2023-02-20T02:13:42.593Z,99347.47
2023-02-20T02:16:15.469Z,99353.78
2023-02-20T02:19:07.933Z,99354.69
2023-02-20T02:22:09.764Z,99352.72
2023-02-20T02:25:11.628Z,99345.13
2023-02-20T02:28:10.179Z,99350.03
2023-02-20T02:31:19.761Z,99359.31
2023-02-20T02:34:07.475Z,99353.97
2023-02-20T02:36:45.320Z,99343.75
2023-02-20T02:39:37.485Z,99348.84
2023-02-20T02:42:12.496Z,99331.50
2023-02-20T02:44:51.197Z,99353.00
2023-02-20T02:47:41.587Z,99355.56
2023-02-20T02:50:14.658Z,99338.66
2023-02-20T02:52:50.393Z,99343.91
2023-02-20T02:55:25.153Z,99334.38
2023-02-20T02:57:52.018Z,99352.19
2023-02-20T03:00:18.543Z,99343.75
2023-02-20T03:02:59.539Z,99340.44
2023-02-20T03:05:40.302Z,99336.22
2023-02-20T03:08:31.459Z,99339.47
2023-02-20T03:11:14.424Z,99331.06
2023-02-20T03:14:24.307Z,99322.88
2023-02-20T03:17:15.541Z,99343.59
2023-02-20T03:19:52.677Z,99335.94
2023-02-20T03:22:27.168Z,99320.69
2023-02-20T03:24:59.864Z,99328.47
2023-02-20T03:27:59.218Z,99325.31
2023-02-20T03:30:37.916Z,99323.72
2023-02-20T03:33:29.046Z,99328.97
2023-02-20T03:36:16.098Z,99302.97
2023-02-20T03:39:06.190Z,99310.59
2023-02-20T03:41:54.842Z,99318.09
2023-02-20T03:44:24.549Z,99304.00
2023-02-20T03:46:55.516Z,99312.03
2023-02-20T03:49:28.028Z,99324.94
2023-02-20T03:51:58.665Z,99313.06
2023-02-20T03:54:27.627Z,99310.19
2023-02-20T03:57:08.336Z,99306.94
2023-02-20T03:59:40.708Z,99320.75
2023-02-20T04:02:20.620Z,99298.31
2023-02-20T04:04:53.342Z,99305.06
2023-02-20T04:07:29.158Z,99326.69
2023-02-20T04:09:59.529Z,99313.91
2023-02-20T04:12:32.848Z,99315.78
2023-02-20T04:15:01.111Z,99306.63
2023-02-20T04:17:32.032Z,99304.94
2023-02-20T04:20:00.274Z,99301.72
2023-02-20T04:22:34.403Z,99309.50
2023-02-20T04:25:07.676Z,99307.72
2023-02-20T04:27:34.520Z,99293.63
2023-02-20T04:30:01.144Z,99308.09
2023-02-20T04:32:27.802Z,99281.16
2023-02-20T04:34:54.449Z,99302.59
2023-02-20T04:37:21.246Z,99297.63
2023-02-20T04:39:49.854Z,99299.25
2023-02-20T04:42:16.481Z,99301.19
2023-02-20T04:44:43.297Z,99302.81
2023-02-20T04:47:19.129Z,99300.16
2023-02-20T04:49:46.067Z,99305.75
2023-02-20T04:52:12.685Z,99284.38
2023-02-20T04:54:39.669Z,99295.75
2023-02-20T04:57:06.296Z,99297.41
2023-02-20T04:59:32.874Z,99292.94
2023-02-20T05:02:02.715Z,99285.06
2023-02-20T05:04:29.798Z,99298.03
2023-02-20T05:06:58.123Z,99284.00
2023-02-20T05:09:25.331Z,99292.84
2023-02-20T05:11:53.691Z,99284.47
2023-02-20T05:14:21.154Z,99259.28
2023-02-20T05:16:49.287Z,99284.19
2023-02-20T05:19:15.936Z,99275.63
2023-02-20T05:22:02.531Z,99284.44
2023-02-20T05:24:29.267Z,99278.50
2023-02-20T05:26:56.216Z,99273.22
2023-02-20T05:29:24.839Z,99281.50
2023-02-20T05:31:51.787Z,99284.19
2023-02-20T05:34:21.295Z,99274.88
2023-02-20T05:36:48.047Z,99271.91
2023-02-20T05:39:14.968Z,99241.72
2023-02-20T05:41:41.618Z,99276.16
2023-02-20T05:44:10.656Z,99266.09
2023-02-20T05:46:41.519Z,99288.31
2023-02-20T05:49:09.455Z,99263.47
2023-02-20T05:51:37.140Z,99282.59
2023-02-20T05:54:04.535Z,99273.28
2023-02-20T05:56:33.037Z,99226.81
2023-02-20T05:59:00.332Z,99279.56
2023-02-20T06:01:29.747Z,99278.44
2023-02-20T06:03:56.436Z,99278.28
2023-02-20T06:06:23.796Z,99269.63
2023-02-20T06:08:50.439Z,99275.66
2023-02-20T06:11:18.896Z,99269.84
2023-02-20T06:13:46.790Z,99277.66
2023-02-20T06:16:14.505Z,99271.59
2023-02-20T06:18:42.583Z,99278.50
2023-02-20T06:21:10.555Z,99271.66
2023-02-20T06:23:38.808Z,99274.09
2023-02-20T06:26:16.775Z,99270.00
2023-02-20T06:28:44.102Z,99271.91
2023-02-20T06:31:11.765Z,99263.13
2023-02-20T06:33:38.372Z,99251.28
2023-02-20T06:36:06.853Z,99252.53
2023-02-20T06:38:33.425Z,99266.66
2023-02-20T06:40:59.967Z,99259.63
2023-02-20T06:43:26.620Z,99263.97
2023-02-20T06:45:53.230Z,99228.56
2023-02-20T06:48:19.799Z,99241.59
2023-02-20T06:50:48.168Z,99256.09
2023-02-20T06:53:14.732Z,99259.78
2023-02-20T06:55:41.400Z,99239.50
2023-02-20T06:58:09.284Z,99245.25
2023-02-20T07:00:36.713Z,99240.31
2023-02-20T07:03:03.322Z,99243.88
2023-02-20T07:05:30.696Z,99235.06
2023-02-20T07:07:57.282Z,99218.28
2023-02-20T07:10:26.050Z,99250.06
2023-02-20T07:12:52.697Z,99234.97
2023-02-20T07:15:20.447Z,99239.97
2023-02-20T07:17:47.023Z,99236.88
2023-02-20T07:20:15.066Z,99232.41
2023-02-20T07:22:52.670Z,99230.81
2023-02-20T07:25:22.264Z,99233.44
2023-02-20T07:27:48.929Z,99228.78
2023-02-20T07:30:15.530Z,99223.88
2023-02-20T07:32:45.868Z,99181.44
2023-02-20T07:35:12.467Z,99223.84
2023-02-20T07:37:39.045Z,99229.06
2023-02-20T07:40:07.012Z,99229.13
2023-02-20T07:42:33.584Z,99223.06
2023-02-20T07:45:00.186Z,99222.56
2023-02-20T07:47:26.822Z,99213.31
2023-02-20T07:49:53.415Z,99229.75
2023-02-20T07:52:20.155Z,99221.63
2023-02-20T07:54:47.567Z,99226.81
2023-02-20T07:57:15.789Z,99229.97
2023-02-20T07:59:42.386Z,99214.44
2023-02-20T08:02:10.545Z,99211.38
2023-02-20T08:04:37.130Z,99209.84
2023-02-20T08:07:07.218Z,99192.97
2023-02-20T08:09:36.195Z,99221.78
2023-02-20T08:12:03.716Z,99216.94
2023-02-20T08:14:31.405Z,99218.50
2023-02-20T08:16:58.079Z,99212.19
2023-02-20T08:19:24.680Z,99198.06
2023-02-20T08:21:51.372Z,99201.63
2023-02-20T08:24:18.831Z,99185.88
2023-02-20T08:26:46.956Z,99188.53
2023-02-20T08:29:14.514Z,99191.94
2023-02-20T08:31:41.995Z,99192.72
2023-02-20T08:34:08.774Z,99190.72
2023-02-20T08:36:35.397Z,99175.25
2023-02-20T08:39:03.544Z,99189.16
2023-02-20T08:41:30.316Z,99196.16
2023-02-20T08:43:56.925Z,99193.09
2023-02-20T08:46:24.273Z,99186.41
2023-02-20T08:48:50.875Z,99181.22
2023-02-20T08:51:21.538Z,99180.50
2023-02-20T08:53:48.254Z,99182.91
2023-02-20T08:56:19.258Z,99155.06
2023-02-20T08:58:45.841Z,99176.44
2023-02-20T09:01:13.109Z,99165.19
2023-02-20T09:03:41.887Z,99178.03
2023-02-20T09:06:08.919Z,99170.59
2023-02-20T09:08:37.144Z,99174.97
2023-02-20T09:11:10.003Z,99165.47
2023-02-20T09:13:44.094Z,99164.00
2023-02-20T09:16:12.362Z,99166.06
2023-02-20T09:18:39.209Z,99164.25
2023-02-20T09:21:32.233Z,99162.53
2023-02-20T09:23:58.805Z,99168.59
2023-02-20T09:26:25.491Z,99164.25
2023-02-20T09:28:52.866Z,99162.75
2023-02-20T09:31:19.610Z,99109.72
2023-02-20T09:33:51.170Z,99155.72
2023-02-20T09:36:18.495Z,99155.03
2023-02-20T09:38:45.060Z,99152.47
2023-02-20T09:41:28.422Z,99139.88
2023-02-20T09:44:10.423Z,99138.44
2023-02-20T09:46:37.551Z,99143.84
2023-02-20T09:49:16.708Z,99142.38
2023-02-20T09:51:49.796Z,99134.88
2023-02-20T09:54:31.883Z,99136.47
2023-02-20T09:57:02.910Z,99123.78
2023-02-20T09:59:38.775Z,99131.06
2023-02-20T10:02:16.989Z,99129.13
2023-02-20T10:05:00.028Z,99132.88
2023-02-20T10:07:31.939Z,99122.16
2023-02-20T10:10:00.923Z,99115.00
2023-02-20T10:13:20.184Z,99127.72
2023-02-20T10:16:01.293Z,99123.44
2023-02-20T10:18:43.605Z,99108.16
2023-02-20T10:21:10.120Z,99109.91
2023-02-20T10:24:05.955Z,99105.03
2023-02-20T10:26:42.638Z,99100.81
2023-02-20T10:29:16.280Z,99082.78
2023-02-20T10:31:54.704Z,99049.59
2023-02-20T10:34:31.614Z,99102.25
2023-02-20T10:37:14.138Z,99103.03
2023-02-20T10:39:52.225Z,99090.97
2023-02-20T10:42:48.609Z,99083.25
2023-02-20T10:45:30.141Z,99079.03
2023-02-20T10:48:06.454Z,99092.66
2023-02-20T10:50:45.245Z,99101.84
2023-02-20T10:53:33.210Z,99069.88
2023-02-20T10:56:28.909Z,99088.78
2023-02-20T10:59:10.489Z,99093.06
2023-02-20T11:01:40.065Z,99090.44
2023-02-20T11:04:21.319Z,99093.75
2023-02-20T11:07:27.761Z,99087.72
2023-02-20T11:09:54.916Z,99085.09
2023-02-20T11:12:31.463Z,99083.38
2023-02-20T11:15:05.307Z,99085.19
2023-02-20T11:17:34.275Z,99079.09
2023-02-20T11:20:06.678Z,99061.09
2023-02-20T11:22:46.929Z,99073.22
2023-02-20T11:25:31.259Z,99061.88
2023-02-20T11:28:22.543Z,99077.31
2023-02-20T11:31:00.680Z,99073.13
2023-02-20T11:33:31.314Z,99092.88
2023-02-20T11:36:09.159Z,99087.00
2023-02-20T11:38:38.824Z,99071.53
2023-02-20T11:41:19.828Z,99074.03
2023-02-20T11:50:53.139Z,99071.28
2023-02-20T11:53:37.676Z,99079.91
2023-02-20T11:56:19.652Z,99083.38
2023-02-20T11:58:47.418Z,99074.56
2023-02-20T12:01:35.258Z,99083.16
2023-02-20T12:04:02.129Z,99085.00
2023-02-20T12:06:38.551Z,99077.47
2023-02-20T12:09:11.206Z,99079.13
2023-02-20T12:11:43.258Z,99081.66
2023-02-20T12:14:15.030Z,99055.59
2023-02-20T12:16:50.695Z,99081.41
2023-02-20T12:19:55.753Z,99073.50
2023-02-20T12:22:38.387Z,99082.75
2023-02-20T12:25:20.166Z,99083.53
2023-02-20T12:27:46.801Z,99081.91
2023-02-20T12:30:26.069Z,99071.69
2023-02-20T12:33:37.829Z,99072.53
2023-02-20T12:36:31.911Z,99067.56
2023-02-20T12:39:14.673Z,99064.28
2023-02-20T12:41:47.005Z,99065.03
2023-02-20T12:44:43.353Z,99071.88
2023-02-20T12:47:24.109Z,99068.44
2023-02-20T12:50:06.724Z,99070.09
2023-02-20T12:53:10.247Z,99062.34
2023-02-20T12:55:49.833Z,99052.03
2023-02-20T12:58:19.830Z,99065.63
2023-02-20T13:01:02.311Z,99064.53
2023-02-20T13:03:31.587Z,99062.78
2023-02-20T13:05:58.341Z,99060.06
2023-02-20T13:08:31.963Z,99054.69
2023-02-20T13:11:02.437Z,99076.84
2023-02-20T13:13:49.221Z,99061.50
2023-02-20T13:16:57.726Z,99057.16
2023-02-20T13:19:42.096Z,99065.69
2023-02-20T13:22:09.041Z,99065.59
2023-02-20T13:24:37.773Z,99061.53
2023-02-20T13:27:09.394Z,99074.50
2023-02-20T13:29:57.869Z,99053.94
2023-02-20T13:32:28.806Z,99065.97
2023-02-20T13:35:15.736Z,99060.75
2023-02-20T13:37:42.306Z,99064.03
2023-02-20T13:41:04.028Z,99072.44
2023-02-20T13:43:43.650Z,99071.59
2023-02-20T13:46:15.051Z,99066.31
2023-02-20T13:48:48.503Z,99071.38
2023-02-20T13:51:15.132Z,99066.97
2023-02-20T13:53:55.199Z,99072.75
2023-02-20T13:56:51.356Z,99066.53
2023-02-20T13:59:21.433Z,99065.66
2023-02-20T14:19:16.981Z,99051.03
2023-02-20T14:21:45.294Z,99051.78
2023-02-20T14:24:24.693Z,99053.53
2023-02-20T14:26:56.100Z,99055.22
2023-02-20T14:29:28.367Z,99044.91
2023-02-20T14:31:57.787Z,99050.91
2023-02-20T14:34:33.526Z,99054.28
2023-02-20T14:37:15.426Z,99055.91
2023-02-20T14:40:12.514Z,99043.97
2023-02-20T14:42:47.800Z,99047.34
2023-02-20T14:45:21.915Z,99047.28
2023-02-20T14:47:53.585Z,99049.97
2023-02-20T14:50:23.271Z,99047.44
2023-02-20T14:53:17.632Z,99033.75
2023-02-20T14:55:45.078Z,99045.66
2023-02-20T14:58:35.630Z,99038.91
2023-02-20T15:01:02.290Z,99048.16
2023-02-20T15:03:31.826Z,99047.28
2023-02-20T15:06:06.737Z,99017.00
2023-02-20T15:08:36.316Z,99033.41
2023-02-20T15:11:11.077Z,99037.66
2023-02-20T15:13:43.631Z,99045.47
2023-02-20T15:16:23.772Z,99051.50
2023-02-20T15:18:50.667Z,99034.25
2023-02-20T15:21:41.083Z,99040.34
2023-02-20T15:24:26.307Z,99026.44
2023-02-20T15:26:53.385Z,99017.63
2023-02-20T15:29:23.616Z,99031.50
2023-02-20T15:32:00.310Z,99021.25
2023-02-20T15:34:34.266Z,99028.16
2023-02-20T15:37:01.593Z,99024.78
2023-02-20T15:39:28.341Z,99017.91
2023-02-20T15:41:58.513Z,99020.47
2023-02-20T15:44:26.520Z,99018.03
2023-02-20T15:46:53.112Z,99000.00
2023-02-20T15:49:25.257Z,99012.13
2023-02-20T15:51:56.178Z,99019.72
2023-02-20T15:54:26.115Z,98997.41
2023-02-20T15:56:55.909Z,99002.59
2023-02-20T15:59:22.548Z,98971.41
2023-02-20T16:01:49.335Z,99004.91
2023-02-20T16:04:17.709Z,98998.06
2023-02-20T16:06:45.501Z,99002.28
2023-02-20T16:09:12.060Z,99003.16
2023-02-20T16:11:42.719Z,98973.88
2023-02-20T16:14:15.357Z,98999.69
2023-02-20T16:16:44.679Z,98998.03
2023-02-20T16:19:21.194Z,98984.09
2023-02-20T16:21:58.847Z,98996.16
2023-02-20T16:24:26.375Z,98975.44
2023-02-20T16:26:53.293Z,98997.94
2023-02-20T16:29:25.335Z,98995.41
2023-02-20T16:31:56.504Z,98964.50
2023-02-20T16:34:26.034Z,98994.63
2023-02-20T16:36:53.542Z,98964.50
2023-02-20T16:39:26.932Z,98982.69
2023-02-20T16:41:57.846Z,98986.25
2023-02-20T16:44:41.983Z,98981.25
2023-02-20T16:47:17.910Z,98979.59
2023-02-20T16:49:45.788Z,98952.09
2023-02-20T16:52:20.058Z,98967.66
2023-02-20T16:54:50.739Z,98946.03
2023-02-20T16:57:18.068Z,98934.91
2023-02-20T16:59:45.240Z,98967.59
2023-02-20T17:02:21.254Z,98958.25
2023-02-20T17:04:48.228Z,98965.88
2023-02-20T17:07:16.341Z,98961.66
2023-02-20T17:09:46.614Z,98919.44
2023-02-20T17:12:19.541Z,98948.00
2023-02-20T17:14:47.903Z,98960.03
2023-02-20T17:17:15.614Z,98950.59
2023-02-20T17:19:44.008Z,98944.47
2023-02-20T17:22:12.841Z,98943.50
2023-02-20T17:24:42.463Z,98940.03
2023-02-20T17:27:10.685Z,98948.66
2023-02-20T17:29:37.475Z,98949.50
2023-02-20T17:34:44.872Z,98944.34
2023-02-20T17:37:11.522Z,98940.25
2023-02-20T17:39:39.044Z,98923.06
2023-02-20T17:42:08.164Z,98919.66
2023-02-20T17:44:34.882Z,98924.81
2023-02-20T17:47:01.900Z,98922.41
2023-02-20T17:49:31.548Z,98906.97
2023-02-20T17:52:06.921Z,98914.88
2023-02-20T17:54:33.786Z,98920.03
2023-02-20T17:57:03.244Z,98923.44
2023-02-20T17:59:30.593Z,98904.66
2023-02-20T18:01:58.020Z,98899.50
2023-02-20T18:04:27.680Z,98901.09
2023-02-20T18:06:54.533Z,98903.88
2023-02-20T18:09:21.624Z,98890.13
2023-02-20T18:11:53.008Z,98898.00
2023-02-20T18:14:20.581Z,98898.88
2023-02-20T18:16:51.351Z,98893.78
2023-02-20T18:19:18.393Z,98887.78
2023-02-20T18:21:49.936Z,98880.19
2023-02-20T18:24:19.028Z,98890.41
2023-02-20T18:26:45.967Z,98880.09
2023-02-20T18:29:12.892Z,98872.44
2023-02-20T18:31:39.626Z,98866.53
2023-02-20T18:34:09.205Z,98867.31
2023-02-20T18:36:35.945Z,98866.53
2023-02-20T18:39:08.299Z,98869.16
2023-02-20T18:41:34.980Z,98870.00
2023-02-20T18:44:01.601Z,98864.72
2023-02-20T18:46:34.315Z,98859.59
2023-02-20T18:49:02.550Z,98856.88
2023-02-20T18:51:34.830Z,98853.38
2023-02-20T18:54:02.095Z,98844.81
2023-02-20T18:56:28.961Z,98848.22
2023-02-20T18:58:55.556Z,98840.47
2023-02-20T19:01:23.439Z,98837.06
2023-02-20T19:03:53.360Z,98842.28
2023-02-20T19:06:29.030Z,98838.88
2023-02-20T19:08:55.926Z,98837.91
2023-02-20T19:11:25.648Z,98832.72
2023-02-20T19:13:52.288Z,98847.31
2023-02-20T19:16:20.582Z,98827.69
2023-02-20T19:18:50.989Z,98841.44
2023-02-20T19:21:18.761Z,98844.06
2023-02-20T19:23:46.070Z,98843.25
2023-02-20T19:26:22.993Z,98839.91
2023-02-20T19:28:50.130Z,98815.22
2023-02-20T19:31:17.120Z,98786.16
2023-02-20T19:33:51.320Z,98803.34
2023-02-20T19:36:17.967Z,98808.66
2023-02-20T19:38:44.665Z,98816.31
2023-02-20T19:41:18.982Z,98811.16
2023-02-20T19:43:48.612Z,98783.72
2023-02-20T19:46:24.789Z,98808.56
2023-02-20T19:48:53.956Z,98801.84
2023-02-20T19:51:21.235Z,98795.00
2023-02-20T19:53:48.303Z,98795.81
2023-02-20T19:56:15.394Z,98792.38
2023-02-20T19:58:42.230Z,98777.88
2023-02-20T20:01:16.845Z,98780.56
2023-02-20T20:03:45.086Z,98786.50
2023-02-20T20:06:13.193Z,98784.84
2023-02-20T20:08:47.695Z,98787.31
2023-02-20T20:11:23.607Z,98753.56
2023-02-20T20:13:50.275Z,98757.03
2023-02-20T20:16:16.889Z,98756.94
2023-02-20T20:18:44.743Z,98760.38
2023-02-20T20:21:13.485Z,98767.25
2023-02-20T20:23:41.463Z,98759.59
2023-02-20T20:26:10.903Z,98726.06
2023-02-20T20:28:41.432Z,98751.72
2023-02-20T20:31:07.996Z,98737.09
2023-02-20T20:33:36.509Z,98748.25
2023-02-20T20:36:07.050Z,98739.66
2023-02-20T20:38:33.597Z,98738.81
2023-02-20T20:41:00.173Z,98735.34
2023-02-20T20:43:27.537Z,98738.81
2023-02-20T20:45:56.769Z,98728.47
2023-02-20T20:48:23.410Z,98734.53
2023-02-20T20:50:50.493Z,98722.41
2023-02-20T20:53:17.088Z,98704.38
2023-02-20T20:55:43.694Z,98736.06
2023-02-20T20:58:11.119Z,98735.25
2023-02-20T21:00:38.274Z,98732.72
2023-02-20T21:03:06.888Z,98722.41
2023-02-20T21:05:35.945Z,98729.22
2023-02-20T21:08:03.890Z,98723.16
2023-02-20T21:10:30.531Z,98730.78
2023-02-20T21:13:02.806Z,98686.06
2023-02-20T21:15:30.179Z,98718.84
2023-02-20T21:17:56.896Z,98718.81
2023-02-20T21:20:27.971Z,98709.47
2023-02-20T21:22:54.678Z,98718.78
2023-02-20T21:25:25.183Z,98694.78
2023-02-20T21:27:56.218Z,98706.03
2023-02-20T21:30:24.571Z,98703.50
2023-02-20T21:32:51.261Z,98705.28
2023-02-20T21:35:20.567Z,98701.00
2023-02-20T21:37:47.671Z,98701.16
2023-02-20T21:40:18.455Z,98685.66
2023-02-20T21:43:03.413Z,98691.00
2023-02-20T21:45:30.084Z,98692.69
2023-02-20T21:47:56.722Z,98687.59
2023-02-20T21:50:24.266Z,98685.00
2023-02-20T21:52:50.892Z,98687.56
2023-02-20T21:55:18.748Z,98681.66
2023-02-20T21:57:49.262Z,98678.13
2023-02-20T22:00:16.345Z,98643.03
2023-02-20T22:02:42.976Z,98645.69
2023-02-20T22:05:11.277Z,98677.25
2023-02-20T22:07:56.431Z,98667.06
2023-02-20T22:10:44.504Z,98666.16
2023-02-20T22:13:30.820Z,98670.38
2023-02-20T22:16:16.483Z,98678.72
2023-02-20T22:19:01.670Z,98646.25
2023-02-20T22:21:46.848Z,98659.97
2023-02-20T22:24:38.714Z,98664.13
2023-02-20T22:27:26.578Z,98650.56
2023-02-20T22:30:11.727Z,98647.91
2023-02-20T22:32:58.398Z,98649.66
2023-02-20T22:35:43.365Z,98643.78
2023-02-20T22:38:28.805Z,98641.97
2023-02-20T22:41:14.105Z,98624.75
2023-02-20T22:43:59.987Z,98638.59
2023-02-20T22:46:45.131Z,98642.84
2023-02-20T22:49:30.484Z,98642.75
2023-02-20T22:52:15.821Z,98630.81
2023-02-20T22:55:05.679Z,98629.81
2023-02-20T22:57:51.769Z,98619.53
2023-02-20T23:00:38.016Z,98634.84
2023-02-20T23:03:23.518Z,98630.56
2023-02-20T23:06:17.433Z,98622.75
2023-02-20T23:09:04.275Z,98617.50
2023-02-20T23:11:57.115Z,98615.84
2023-02-20T23:14:42.134Z,98603.81
2023-02-20T23:17:36.172Z,98597.69
2023-02-20T23:20:33.926Z,98609.63
2023-02-20T23:23:20.223Z,98594.00
2023-02-20T23:26:05.090Z,98605.97
2023-02-20T23:28:50.647Z,98604.09
2023-02-20T23:31:36.375Z,98610.06
2023-02-20T23:34:24.321Z,98602.38
2023-02-20T23:37:11.574Z,98592.94
2023-02-20T23:39:58.403Z,98597.97
2023-02-20T23:42:43.324Z,98594.53
2023-02-20T23:45:28.664Z,98595.34
2023-02-20T23:48:13.855Z,98593.50
2023-02-20T23:50:59.452Z,98597.78
2023-02-20T23:53:44.538Z,98595.16
2023-02-20T23:56:30.287Z,98598.50
2023-02-20T23:59:15.779Z,98602.78
